Time;durP1;ratioP1;P1;durP2;ratioP2;P2;SDS_P1;SDS_P2;PMS_P1;PMS_P2;Temp;Humidity;BMP_temperature;BMP_pressure;BME280_temperature;BME280_humidity;BME280_pressure;Samples;Min_cycle;Max_cycle;Signal;HPM_P1;HPM_P2
2021/10/14 00:02:28;;;;;;;42.40;18.63;;;;;;;11.58;64.24;98789.53;4769684;30;20514;-81
2021/10/14 00:05:30;;;;;;;38.83;17.60;;;;;;;12.13;64.24;98874.69;4771478;30;20521;-80
2021/10/14 00:08:04;;;;;;;39.35;18.88;;;;;;;11.98;64.45;98849.22;4770453;30;20063;-80
2021/10/14 00:10:50;;;;;;;42.53;19.35;;;;;;;11.57;64.43;98781.66;4785167;30;20146;-79
2021/10/14 00:13:34;;;;;;;46.03;19.25;;;;;;;11.88;64.44;98836.56;4771144;30;20066;-80
2021/10/14 00:16:07;;;;;;;39.83;19.23;;;;;;;11.53;64.30;98775.16;4767674;30;20063;-81
2021/10/14 00:18:46;;;;;;;55.00;20.77;;;;;;;11.53;64.31;98783.34;4765731;30;20062;-81
2021/10/14 00:21:27;;;;;;;54.53;21.40;;;;;;;11.60;64.16;98784.56;4752888;30;20468;-80
2021/10/14 00:24:42;;;;;;;47.10;21.65;;;;;;;11.49;64.52;98778.50;4767960;30;20055;-81
2021/10/14 00:27:40;;;;;;;50.65;23.00;;;;;;;11.46;64.43;98773.66;4782449;30;20146;-81
2021/10/14 01:04:55;;;;;;;49.03;18.30;;;;;;;12.03;63.65;98820.94;4856405;29;20057;-83
2021/10/14 01:08:15;;;;;;;31.67;17.58;;;;;;;11.92;63.91;98818.38;4816243;29;20069;-83
2021/10/14 01:11:05;;;;;;;35.88;17.48;;;;;;;11.66;63.67;98771.56;4846796;29;20049;-84
2021/10/14 01:13:35;;;;;;;34.38;17.65;;;;;;;11.41;63.79;98727.22;4844811;29;20109;-83
2021/10/14 01:16:45;;;;;;;35.85;18.08;;;;;;;11.59;63.71;98763.00;4861166;29;20081;-83
2021/10/14 01:19:26;;;;;;;35.88;17.83;;;;;;;11.81;63.52;98794.28;4811690;29;20431;-84
2021/10/14 01:22:13;;;;;;;33.45;17.27;;;;;;;11.57;63.53;98754.28;4844895;29;20058;-83
2021/10/14 01:25:15;;;;;;;31.38;17.67;;;;;;;11.91;63.66;98815.97;4845506;29;20148;-83
2021/10/14 01:28:35;;;;;;;44.40;18.48;;;;;;;11.85;63.98;98814.44;4845423;29;20515;-83
2021/10/14 01:31:37;;;;;;;36.92;18.80;;;;;;;11.26;63.49;98731.09;4845557;29;20061;-83
2021/10/14 01:35:03;;;;;;;36.42;18.52;;;;;;;11.42;63.43;98752.66;4811262;29;20061;-83
2021/10/14 01:42:57;;;;;;;42.90;19.80;;;;;;;11.27;63.50;98745.59;4859211;29;20060;-83
2021/10/14 02:11:34;;;;;;;39.45;19.08;;;;;;;11.19;62.98;98739.69;4748419;30;20067;-82
2021/10/14 02:32:51;;;;;;;39.38;20.08;;;;;;;11.45;62.85;98773.94;4725216;30;20102;-84
2021/10/14 02:46:13;;;;;;;42.88;21.35;;;;;;;11.54;62.97;98783.06;4854545;29;20152;-84
2021/10/14 02:54:25;;;;;;;45.33;22.52;;;;;;;10.94;62.67;98700.00;4844185;29;20061;-83
2021/10/14 02:56:53;;;;;;;42.35;24.42;;;;;;;11.34;62.47;98762.41;4807486;29;20094;-81
2021/10/14 02:59:23;;;;;;;54.33;26.27;;;;;;;11.32;62.69;98770.94;4829281;29;20045;-82
2021/10/14 03:11:19;;;;;;;43.92;21.48;;;;;;;10.95;62.03;98706.28;4681499;30;20537;-84
2021/10/14 03:13:45;;;;;;;45.63;23.27;;;;;;;11.50;61.98;98790.28;4755233;29;20063;-75
2021/10/14 03:16:11;;;;;;;50.47;22.15;;;;;;;11.43;61.87;98770.69;4767888;29;20058;-76
2021/10/14 03:18:37;;;;;;;42.92;20.73;;;;;;;11.48;61.91;98785.09;4851474;29;20060;-73
2021/10/14 03:21:03;;;;;;;49.10;23.27;;;;;;;11.54;61.76;98782.25;4856236;29;20413;-73
2021/10/14 03:23:30;;;;;;;44.05;21.05;;;;;;;11.49;61.72;98775.75;4844663;29;20057;-72
2021/10/14 03:25:56;;;;;;;43.30;19.40;;;;;;;11.46;61.77;98770.91;4854923;29;20057;-72
2021/10/14 03:28:23;;;;;;;37.03;19.05;;;;;;;11.43;61.56;98757.84;4850364;29;20082;-72
2021/10/14 03:30:49;;;;;;;35.47;18.55;;;;;;;11.45;61.56;98761.06;4843892;29;20069;-72
2021/10/14 03:33:15;;;;;;;44.95;18.52;;;;;;;11.46;61.35;98756.41;4848094;29;20054;-72
2021/10/14 03:35:41;;;;;;;39.63;18.10;;;;;;;11.48;61.28;98765.13;4859557;29;20073;-73
2021/10/14 03:38:07;;;;;;;38.38;18.20;;;;;;;11.49;60.96;98762.06;4862801;29;20084;-72
2021/10/14 03:40:33;;;;;;;36.92;18.27;;;;;;;11.46;61.11;98764.59;4843427;29;20084;-72
2021/10/14 03:42:59;;;;;;;36.90;17.23;;;;;;;11.41;61.06;98751.03;4844497;29;20468;-73
2021/10/14 03:45:27;;;;;;;39.58;17.77;;;;;;;11.44;61.00;98756.72;4868155;29;20054;-72
2021/10/14 03:47:53;;;;;;;34.88;17.33;;;;;;;11.46;60.75;98754.47;4860845;29;20065;-74
2021/10/14 03:50:19;;;;;;;47.75;17.38;;;;;;;11.41;60.80;98751.88;4861872;29;20064;-74
2021/10/14 03:52:46;;;;;;;38.17;16.58;;;;;;;11.39;60.77;98743.13;4846804;29;20060;-74
2021/10/14 03:55:12;;;;;;;40.83;16.02;;;;;;;11.44;60.42;98750.41;4840209;29;20555;-74
2021/10/14 03:57:39;;;;;;;32.30;15.25;;;;;;;11.48;60.47;98746.78;4840390;29;20088;-74
2021/10/14 04:00:06;;;;;;;40.72;16.73;;;;;;;11.49;59.99;98744.84;4844533;29;20057;-74
2021/10/14 04:02:36;;;;;;;37.33;16.73;;;;;;;11.42;59.89;98725.28;4843363;29;20468;-73
2021/10/14 04:05:05;;;;;;;36.78;16.75;;;;;;;11.41;59.95;98735.44;4858230;29;20062;-74
2021/10/14 04:07:32;;;;;;;35.35;16.02;;;;;;;11.41;59.96;98729.97;4829707;29;20091;-74
2021/10/14 04:09:58;;;;;;;40.03;17.25;;;;;;;11.41;60.07;98726.41;4861135;29;20479;-74
2021/10/14 04:12:25;;;;;;;38.85;16.08;;;;;;;11.37;59.83;98712.53;4862372;29;20539;-75
2021/10/14 04:14:51;;;;;;;38.10;16.53;;;;;;;11.42;59.79;98726.13;4862202;29;20148;-75
2021/10/14 04:17:18;;;;;;;37.33;16.15;;;;;;;11.37;59.86;98722.66;4846132;29;20058;-74
2021/10/14 04:19:48;;;;;;;36.03;16.85;;;;;;;11.20;59.93;98696.75;4838355;29;20055;-73
2021/10/14 04:22:15;;;;;;;33.22;15.68;;;;;;;11.37;59.83;98700.78;4828806;29;20427;-74
2021/10/14 04:24:42;;;;;;;35.75;16.23;;;;;;;11.35;59.62;98692.88;4850318;29;20181;-74
2021/10/14 04:27:08;;;;;;;36.70;15.57;;;;;;;11.23;59.71;98682.44;4840764;29;20070;-74
2021/10/14 04:29:39;;;;;;;38.33;14.90;;;;;;;11.34;59.70;98697.53;4844046;29;20425;-74
2021/10/14 04:32:08;;;;;;;27.75;14.25;;;;;;;11.40;59.31;98689.22;4833627;29;20054;-74
2021/10/14 04:34:35;;;;;;;42.08;14.63;;;;;;;11.37;59.29;98689.84;4855347;29;20502;-74
2021/10/14 04:37:08;;;;;;;37.67;14.35;;;;;;;11.33;59.03;98684.16;4848345;29;20061;-74
2021/10/14 04:39:38;;;;;;;31.88;14.27;;;;;;;11.34;59.16;98689.34;4841038;29;20057;-74
2021/10/14 04:42:07;;;;;;;31.35;13.50;;;;;;;11.37;58.76;98698.84;4861086;29;20061;-74
2021/10/14 04:44:36;;;;;;;31.30;12.65;;;;;;;11.44;58.39;98701.16;4845571;29;20143;-74
2021/10/14 04:47:03;;;;;;;33.20;13.05;;;;;;;11.47;58.19;98693.16;4855205;29;20510;-74
2021/10/14 04:49:32;;;;;;;34.03;13.40;;;;;;;11.48;58.29;98694.75;4843476;29;20067;-74
2021/10/14 04:52:02;;;;;;;28.90;13.32;;;;;;;11.42;58.32;98693.28;4843082;29;20057;-74
2021/10/14 04:54:29;;;;;;;39.13;12.82;;;;;;;11.48;57.77;98683.03;4847648;29;20065;-74
2021/10/14 04:56:55;;;;;;;30.83;12.80;;;;;;;11.46;57.79;98679.75;4834907;29;20049;-74
2021/10/14 04:59:24;;;;;;;32.08;12.63;;;;;;;11.47;57.85;98682.19;4844763;29;20493;-74
2021/10/14 05:01:53;;;;;;;28.63;11.38;;;;;;;11.48;57.76;98685.75;4844118;29;20061;-74
2021/10/14 05:04:22;;;;;;;31.73;12.10;;;;;;;11.48;57.56;98675.59;4861500;29;20126;-74
2021/10/14 05:06:48;;;;;;;27.10;12.10;;;;;;;11.51;57.40;98698.00;4852717;29;20058;-74
2021/10/14 05:09:14;;;;;;;24.50;11.68;;;;;;;11.46;57.29;98697.00;4853902;29;20061;-74
2021/10/14 05:11:45;;;;;;;36.17;12.00;;;;;;;11.45;57.37;98702.78;4852312;29;20058;-74
2021/10/14 05:14:13;;;;;;;37.65;12.93;;;;;;;11.40;57.61;98690.03;4851268;29;20556;-74
2021/10/14 05:16:39;;;;;;;27.05;11.85;;;;;;;11.43;57.72;98689.41;4853259;29;20054;-73
2021/10/14 05:19:05;;;;;;;37.58;13.02;;;;;;;11.42;58.05;98690.53;4856544;29;20081;-72
2021/10/14 05:21:31;;;;;;;32.03;12.40;;;;;;;11.41;58.01;98688.09;4861286;29;20058;-74
2021/10/14 05:24:00;;;;;;;30.35;12.15;;;;;;;11.40;58.07;98679.09;4861064;29;20079;-75
2021/10/14 05:26:31;;;;;;;33.08;12.27;;;;;;;11.40;57.98;98667.31;4860079;29;20149;-74
2021/10/14 05:28:59;;;;;;;30.23;11.43;;;;;;;11.47;57.62;98663.03;4847557;29;20526;-75
2021/10/14 05:31:26;;;;;;;26.73;11.80;;;;;;;11.48;57.46;98664.66;4844124;29;20057;-75
2021/10/14 05:33:55;;;;;;;26.27;10.90;;;;;;;11.44;57.18;98666.41;4859799;29;20065;-75
2021/10/14 05:36:22;;;;;;;37.20;11.07;;;;;;;11.45;57.18;98664.47;4856984;29;20583;-75
2021/10/14 05:38:48;;;;;;;28.52;11.20;;;;;;;11.45;57.06;98662.53;4847794;29;20069;-75
2021/10/14 05:41:14;;;;;;;30.67;10.32;;;;;;;11.47;56.95;98659.47;4851305;29;20057;-72
2021/10/14 05:43:40;;;;;;;31.90;10.93;;;;;;;11.46;57.00;98658.69;4836967;29;20157;-73
2021/10/14 05:46:08;;;;;;;23.17;10.45;;;;;;;11.47;56.69;98643.06;4826825;29;20050;-72
2021/10/14 05:48:34;;;;;;;32.42;10.52;;;;;;;11.53;56.58;98650.06;4849322;29;20058;-74
2021/10/14 05:51:04;;;;;;;25.50;10.80;;;;;;;11.53;56.32;98654.69;4843679;29;20557;-74
2021/10/14 05:53:33;;;;;;;28.27;10.10;;;;;;;11.47;56.35;98668.50;4859839;29;20064;-74
2021/10/14 05:55:58;;;;;;;24.70;10.27;;;;;;;11.44;56.32;98669.13;4857508;29;20061;-74
2021/10/14 05:58:25;;;;;;;28.60;10.23;;;;;;;11.39;56.70;98665.69;4846629;29;20418;-72
2021/10/14 06:00:52;;;;;;;40.15;11.00;;;;;;;11.36;56.37;98661.63;4855890;29;20053;-73
2021/10/14 06:03:19;;;;;;;23.55;10.55;;;;;;;11.39;56.26;98665.69;4819548;29;20062;-74
2021/10/14 06:05:45;;;;;;;26.55;10.35;;;;;;;11.41;56.20;98663.47;4825628;29;20062;-74
2021/10/14 06:08:11;;;;;;;26.80;9.82;;;;;;;11.35;56.31;98649.06;4857364;29;20068;-74
2021/10/14 06:10:40;;;;;;;28.67;10.07;;;;;;;11.36;55.77;98642.50;4843421;29;20057;-75
2021/10/14 06:13:09;;;;;;;31.38;10.73;;;;;;;11.31;55.70;98645.34;4839820;29;20058;-74
2021/10/14 06:15:38;;;;;;;31.65;10.82;;;;;;;11.46;55.58;98653.22;4841990;29;20054;-74
2021/10/14 06:18:04;;;;;;;33.88;10.80;;;;;;;11.48;55.20;98648.22;4848227;29;20058;-74
2021/10/14 06:20:32;;;;;;;29.70;10.32;;;;;;;11.45;55.01;98661.72;4825509;29;20061;-73
2021/10/14 06:22:58;;;;;;;35.08;10.40;;;;;;;11.27;54.90;98634.19;4841345;29;20507;-74
2021/10/14 06:25:27;;;;;;;37.85;11.32;;;;;;;11.43;54.88;98644.81;4859618;29;20045;-74
2021/10/14 06:27:56;;;;;;;31.83;10.05;;;;;;;11.41;55.01;98644.31;4849528;29;20046;-73
2021/10/14 06:30:23;;;;;;;35.05;10.00;;;;;;;11.40;54.87;98637.22;4847084;29;20093;-74
2021/10/14 06:32:52;;;;;;;32.17;9.77;;;;;;;11.36;54.64;98634.28;4825645;29;20050;-74
2021/10/14 06:35:18;;;;;;;27.63;9.98;;;;;;;11.41;54.46;98639.66;4853589;29;20433;-74
2021/10/14 06:37:45;;;;;;;29.08;10.13;;;;;;;11.42;54.51;98641.28;4855845;29;20110;-73
2021/10/14 06:40:11;;;;;;;27.05;9.25;;;;;;;11.35;54.48;98638.97;4841478;29;20144;-74
2021/10/14 06:42:37;;;;;;;30.38;10.00;;;;;;;11.26;54.50;98624.38;4851451;29;20064;-74
2021/10/14 06:45:06;;;;;;;25.33;9.45;;;;;;;11.41;54.40;98647.88;4854372;29;20411;-74
2021/10/14 06:47:32;;;;;;;32.72;9.82;;;;;;;11.25;54.27;98619.22;4829508;29;20546;-73
2021/10/14 06:49:58;;;;;;;27.27;9.55;;;;;;;11.36;54.46;98634.28;4841233;29;20053;-74
2021/10/14 06:52:27;;;;;;;23.85;9.52;;;;;;;11.25;54.69;98622.75;4841157;29;20061;-74
2021/10/14 06:54:55;;;;;;;28.27;10.73;;;;;;;11.19;54.54;98616.59;4849227;29;20194;-74
2021/10/14 06:57:21;;;;;;;27.98;8.77;;;;;;;11.32;54.57;98645.06;4846877;29;20122;-74
2021/10/14 06:59:47;;;;;;;37.53;10.60;;;;;;;11.34;54.44;98642.00;4846485;29;20121;-74
2021/10/14 07:02:13;;;;;;;38.40;11.40;;;;;;;11.14;54.41;98603.03;4845832;29;20434;-74
2021/10/14 07:04:38;;;;;;;39.97;12.70;;;;;;;11.29;54.44;98626.50;4839127;29;20058;-74
2021/10/14 07:07:04;;;;;;;32.17;11.40;;;;;;;11.35;54.56;98632.66;4843679;29;20141;-73
2021/10/14 07:09:31;;;;;;;32.55;12.75;;;;;;;11.26;54.38;98627.09;4845826;29;20145;-80
2021/10/14 07:12:05;;;;;;;35.08;12.65;;;;;;;11.28;54.52;98635.03;4837248;29;20054;-81
2021/10/14 07:14:31;;;;;;;35.70;11.88;;;;;;;11.28;54.49;98638.56;4828999;29;20085;-81
2021/10/14 07:16:57;;;;;;;44.55;11.95;;;;;;;11.26;54.48;98637.25;4846633;29;20066;-81
2021/10/14 07:19:23;;;;;;;34.45;11.93;;;;;;;11.23;54.36;98615.97;4826261;29;20057;-81
2021/10/14 07:21:49;;;;;;;38.05;12.25;;;;;;;11.31;54.36;98628.94;4813371;29;20065;-80
2021/10/14 07:24:17;;;;;;;40.35;12.20;;;;;;;11.24;54.24;98628.53;4857081;29;20152;-82
2021/10/14 07:26:43;;;;;;;36.58;10.98;;;;;;;11.28;54.32;98641.28;4856240;29;20060;-82
2021/10/14 07:29:13;;;;;;;33.38;11.80;;;;;;;11.17;54.54;98629.78;4830397;29;20118;-81
2021/10/14 07:31:40;;;;;;;34.58;11.52;;;;;;;11.22;54.59;98645.28;4854312;29;20061;-82
2021/10/14 07:34:06;;;;;;;35.55;10.70;;;;;;;11.14;54.27;98638.59;4862178;29;20143;-82
2021/10/14 07:36:53;;;;;;;34.70;11.38;;;;;;;10.90;54.39;98606.03;4837672;29;20058;-82
2021/10/14 07:39:42;;;;;;;33.08;10.70;;;;;;;10.70;54.21;98580.72;4823721;29;20062;-82
2021/10/14 07:42:11;;;;;;;33.80;9.98;;;;;;;11.03;54.32;98627.06;4840219;29;20078;-82
2021/10/14 07:44:46;;;;;;;41.45;9.60;;;;;;;11.11;54.23;98650.16;4821628;29;20144;-82
2021/10/14 07:47:19;;;;;;;32.97;9.65;;;;;;;11.09;54.44;98635.97;4827416;29;20061;-81
2021/10/14 07:49:45;;;;;;;37.35;10.70;;;;;;;10.81;54.39;98591.44;4854031;29;20152;-81
2021/10/14 07:52:11;;;;;;;28.17;9.68;;;;;;;10.90;54.26;98612.28;4851913;29;20476;-81
2021/10/14 07:54:37;;;;;;;41.08;9.77;;;;;;;10.87;54.27;98607.44;4859005;29;20057;-81
2021/10/14 07:57:15;;;;;;;32.65;9.20;;;;;;;10.91;54.41;98600.22;4858411;29;20077;-82
2021/10/14 08:00:01;;;;;;;29.98;9.50;;;;;;;10.89;54.47;98590.72;4841991;29;20057;-82
2021/10/14 08:02:28;;;;;;;30.08;8.18;;;;;;;11.14;54.39;98619.44;4837913;29;20054;-82
2021/10/14 08:04:57;;;;;;;27.33;10.15;;;;;;;11.18;54.44;98611.44;4838443;29;20058;-81
2021/10/14 08:07:23;;;;;;;49.78;9.85;;;;;;;10.61;54.58;98533.34;4845785;29;20053;-81
2021/10/14 08:09:49;;;;;;;31.17;9.50;;;;;;;10.94;54.63;98581.59;4817049;29;20066;-82
2021/10/14 08:12:15;;;;;;;29.58;9.00;;;;;;;11.06;54.58;98599.09;4852669;29;20050;-81
2021/10/14 08:14:41;;;;;;;39.53;10.20;;;;;;;11.16;54.51;98614.47;4856708;29;20072;-81
2021/10/14 08:17:11;;;;;;;38.55;11.18;;;;;;;11.18;54.51;98612.22;4815426;29;20085;-81
2021/10/14 08:19:38;;;;;;;37.05;10.40;;;;;;;11.24;54.45;98612.09;4844377;29;20061;-81
2021/10/14 08:22:04;;;;;;;31.70;10.65;;;;;;;11.32;54.37;98604.00;4843090;29;20057;-81
2021/10/14 08:24:30;;;;;;;36.08;9.70;;;;;;;11.41;53.91;98616.94;4837639;29;20483;-81
2021/10/14 08:26:56;;;;;;;37.17;9.25;;;;;;;11.47;53.93;98608.31;4855989;29;20114;-81
2021/10/14 08:29:22;;;;;;;32.60;11.45;;;;;;;11.42;53.98;98591.19;4859004;29;20085;-81
2021/10/14 08:31:51;;;;;;;34.97;9.80;;;;;;;11.38;53.46;98569.09;4826937;29;20148;-81
2021/10/14 08:34:17;;;;;;;38.80;9.85;;;;;;;11.62;53.37;98598.09;4814419;29;20136;-82
2021/10/14 08:36:44;;;;;;;34.22;10.70;;;;;;;11.46;53.37;98582.06;4850077;29;20202;-82
2021/10/14 08:39:11;;;;;;;39.80;10.82;;;;;;;11.20;53.57;98538.06;4825588;29;20148;-82
2021/10/14 08:41:39;;;;;;;30.65;10.05;;;;;;;11.48;53.58;98574.34;4829589;29;20071;-81
2021/10/14 08:44:10;;;;;;;37.08;10.60;;;;;;;11.66;53.61;98603.78;4844443;29;20054;-81
2021/10/14 08:46:36;;;;;;;38.60;10.98;;;;;;;11.59;53.25;98601.47;4842333;29;20114;-81
2021/10/14 08:49:02;;;;;;;41.70;11.45;;;;;;;11.61;53.04;98596.50;4819835;29;20533;-82
2021/10/14 08:51:29;;;;;;;30.08;10.65;;;;;;;11.61;52.94;98600.03;4841314;29;20487;-81
2021/10/14 08:53:56;;;;;;;33.88;10.57;;;;;;;11.61;52.81;98593.75;4834694;29;20058;-81
2021/10/14 08:56:22;;;;;;;26.50;9.95;;;;;;;11.58;52.61;98597.91;4835894;29;20066;-80
2021/10/14 08:58:49;;;;;;;32.65;10.95;;;;;;;11.63;52.55;98591.50;4824585;29;20129;-81
2021/10/14 09:01:42;;;;;;;36.42;11.40;;;;;;;11.47;52.40;98559.03;4825927;29;20070;-85
2021/10/14 09:04:14;;;;;;;45.92;12.50;;;;;;;11.61;52.52;98583.59;4827199;29;20542;-89
2021/10/14 09:06:40;;;;;;;38.85;12.98;;;;;;;11.61;52.60;98586.34;4827628;29;20054;-83
2021/10/14 09:09:08;;;;;;;35.30;12.60;;;;;;;11.60;52.44;98581.97;4861025;29;20065;-79
2021/10/14 09:11:34;;;;;;;41.67;12.18;;;;;;;11.41;52.63;98554.81;4860860;29;20061;-80
2021/10/14 09:14:03;;;;;;;39.88;12.23;;;;;;;11.60;52.61;98581.19;4861246;29;20140;-78
2021/10/14 09:16:31;;;;;;;45.63;12.13;;;;;;;11.27;52.74;98534.91;4844201;29;20118;-79
2021/10/14 09:19:23;;;;;;;42.25;10.98;;;;;;;11.56;53.08;98581.00;4835377;29;20148;-79
2021/10/14 09:21:55;;;;;;;42.65;10.98;;;;;;;11.53;52.83;98570.66;4807723;29;20073;-81
2021/10/14 09:24:32;;;;;;;46.70;11.95;;;;;;;11.62;52.99;98584.41;4854878;29;20196;-80
2021/10/14 09:27:01;;;;;;;40.60;11.93;;;;;;;11.56;53.20;98578.25;4828639;29;20069;-80
2021/10/14 09:29:34;;;;;;;44.38;12.32;;;;;;;11.47;53.34;98569.16;4828107;29;20088;-79
2021/10/14 09:32:20;;;;;;;47.95;11.75;;;;;;;11.54;53.41;98585.16;4806203;29;20070;-82
2021/10/14 09:35:24;;;;;;;38.75;11.40;;;;;;;11.55;53.55;98578.56;4820949;29;20054;-82
2021/10/14 09:37:53;;;;;;;41.75;11.27;;;;;;;11.51;53.78;98585.78;4802448;29;20337;-82
2021/10/14 09:40:26;;;;;;;38.45;10.32;;;;;;;11.47;53.75;98580.94;4809644;29;20562;-81
2021/10/14 09:42:55;;;;;;;42.05;11.48;;;;;;;11.45;54.15;98582.34;4820332;29;20050;-79
2021/10/14 09:45:25;;;;;;;40.28;10.40;;;;;;;11.35;54.24;98577.94;4820979;29;20123;-81
2021/10/14 09:48:08;;;;;;;37.85;11.40;;;;;;;11.27;54.65;98571.28;4805628;29;20508;-79
2021/10/14 09:50:38;;;;;;;38.20;11.57;;;;;;;11.33;54.43;98571.97;4805392;29;20481;-80
2021/10/14 09:53:06;;;;;;;31.13;11.32;;;;;;;11.20;54.78;98563.47;4819397;29;20054;-79
2021/10/14 09:55:34;;;;;;;36.53;11.10;;;;;;;11.25;54.82;98568.03;4820211;29;20153;-80
2021/10/14 09:58:01;;;;;;;45.67;12.55;;;;;;;11.10;55.22;98558.28;4790228;29;20134;-80
2021/10/14 10:00:28;;;;;;;;;;;;;;;11.21;55.80;98576.03;4821242;29;20066;-81
2021/10/14 10:02:55;;;;;;;46.03;13.05;;;;;;;11.22;55.94;98574.13;4820575;29;19936;-81
2021/10/14 10:05:22;;;;;;;43.22;13.15;;;;;;;11.18;56.61;98570.41;4820659;29;20078;-80
2021/10/14 10:07:51;;;;;;;37.58;14.40;;;;;;;11.16;57.08;98573.44;4805167;29;20079;-81
2021/10/14 10:10:21;;;;;;;38.53;13.70;;;;;;;11.13;57.27;98576.78;4820087;29;20078;-83
2021/10/14 10:13:11;;;;;;;51.67;13.65;;;;;;;11.11;57.37;98575.47;4792460;29;20099;-81
2021/10/14 10:15:45;;;;;;;49.10;14.07;;;;;;;10.92;57.47;98544.41;4819263;29;20058;-81
2021/10/14 10:18:39;;;;;;;39.70;13.52;;;;;;;10.61;57.55;98514.22;4805380;29;20435;-80
2021/10/14 10:21:54;;;;;;;51.53;13.52;;;;;;;10.55;57.82;98499.84;4782589;29;20062;-80
2021/10/14 10:24:32;;;;;;;35.90;13.00;;;;;;;10.84;57.90;98553.34;4819866;29;20066;-81
2021/10/14 10:27:28;;;;;;;49.58;12.85;;;;;;;10.83;57.91;98546.28;4802316;29;20150;-80
2021/10/14 10:29:59;;;;;;;;;;;;;;;11.05;58.17;98575.59;4806203;29;20168;-79
2021/10/14 10:32:41;;;;;;;;;;;;;;;11.10;58.21;98573.84;4832343;29;19932;-82
2021/10/14 10:35:30;;;;;;;44.53;14.13;;;;;;;10.46;58.24;98480.63;4828116;29;20389;-81
2021/10/14 10:38:55;;;;;;;40.88;13.55;;;;;;;10.44;58.56;98471.13;4818606;29;20072;-81
2021/10/14 10:41:36;;;;;;;42.20;13.07;;;;;;;10.77;58.72;98520.16;4789782;29;20157;-81
2021/10/14 10:44:10;;;;;;;45.33;13.30;;;;;;;10.49;58.82;98477.28;4821044;29;20173;-81
2021/10/14 10:46:44;;;;;;;42.97;12.93;;;;;;;10.85;59.02;98527.63;4824019;29;20535;-80
2021/10/14 10:49:55;;;;;;;41.47;12.45;;;;;;;10.96;59.17;98541.09;4838452;29;20104;-84
2021/10/14 10:53:01;;;;;;;35.53;11.75;;;;;;;10.64;58.85;98486.25;4741716;29;20058;-78
2021/10/14 10:55:42;;;;;;;44.10;12.80;;;;;;;11.11;58.94;98535.25;4796967;29;20405;-82
2021/10/14 10:58:12;;;;;;;41.58;12.63;;;;;;;11.15;58.64;98541.72;4805039;29;20099;-82
2021/10/14 11:00:40;;;;;;;36.58;12.63;;;;;;;10.65;58.46;98460.56;4803794;29;20062;-82
2021/10/14 11:03:21;;;;;;;41.78;12.43;;;;;;;10.79;58.30;98471.47;4832941;29;20565;-82
2021/10/14 11:05:53;;;;;;;41.88;11.48;;;;;;;10.77;58.08;98462.72;4837893;29;20466;-82
2021/10/14 11:08:24;;;;;;;41.63;11.85;;;;;;;11.21;58.11;98548.69;4837316;29;20160;-81
2021/10/14 11:10:53;;;;;;;37.33;11.85;;;;;;;11.25;58.17;98539.88;4830861;29;20524;-82
2021/10/14 11:13:20;;;;;;;41.35;12.13;;;;;;;11.13;58.42;98534.94;4847610;29;20478;-81
2021/10/14 11:16:22;;;;;;;43.50;12.80;;;;;;;11.11;58.30;98523.50;4839213;29;20049;-81
2021/10/14 11:19:29;;;;;;;56.85;11.63;;;;;;;11.17;58.00;98523.06;4848183;29;20062;-80
2021/10/14 11:22:25;;;;;;;45.95;12.30;;;;;;;11.23;58.07;98531.16;4850761;29;20152;-81
2021/10/14 11:25:25;;;;;;;44.72;11.23;;;;;;;11.03;57.83;98501.25;4820805;29;20591;-81
2021/10/14 11:28:05;;;;;;;47.20;11.82;;;;;;;10.68;57.73;98453.66;4825732;29;20054;-82
2021/10/14 11:30:37;;;;;;;58.20;11.50;;;;;;;11.04;57.92;98502.03;4840158;29;20053;-73
2021/10/14 11:33:10;;;;;;;45.60;11.02;;;;;;;11.21;57.77;98535.00;4853335;29;20072;-74
2021/10/14 11:35:38;;;;;;;49.45;11.57;;;;;;;11.17;57.97;98539.50;4856634;29;20061;-75
2021/10/14 11:38:16;;;;;;;56.03;11.77;;;;;;;11.06;58.38;98519.78;4855344;29;20058;-76
2021/10/14 11:40:49;;;;;;;44.65;10.63;;;;;;;11.11;58.38;98535.25;4809038;29;20056;-75
2021/10/14 11:43:40;;;;;;;37.50;11.02;;;;;;;11.16;58.21;98526.09;4794084;29;20082;-74
2021/10/14 11:46:29;;;;;;;32.92;10.10;;;;;;;10.92;59.07;98527.22;4789352;29;20057;-74
2021/10/14 11:49:06;;;;;;;56.60;12.00;;;;;;;10.86;59.34;98520.25;4803427;29;20063;-75
2021/10/14 11:52:12;;;;;;;43.97;11.48;;;;;;;10.77;59.55;98518.22;4839065;29;20146;-75
2021/10/14 11:54:41;;;;;;;47.22;11.68;;;;;;;10.90;59.22;98522.03;4818588;29;20121;-75
2021/10/14 11:57:07;;;;;;;53.72;11.15;;;;;;;10.82;59.65;98522.78;4815841;29;20054;-74
2021/10/14 11:59:34;;;;;;;62.72;11.60;;;;;;;10.72;59.72;98523.00;4822465;29;20161;-74
2021/10/14 12:02:04;;;;;;;47.40;10.88;;;;;;;10.73;59.86;98519.16;4835881;29;20106;-74
2021/10/14 12:04:33;;;;;;;57.58;12.77;;;;;;;10.75;59.92;98520.47;4823561;29;20065;-74
2021/10/14 12:07:01;;;;;;;41.97;13.65;;;;;;;10.78;59.75;98513.59;4839349;29;20136;-74
2021/10/14 12:09:29;;;;;;;48.67;14.48;;;;;;;10.76;59.88;98513.88;4834385;29;20543;-75
2021/10/14 12:11:59;;;;;;;56.53;13.48;;;;;;;10.77;59.98;98501.00;4838862;29;20083;-74
2021/10/14 12:14:26;;;;;;;50.05;14.15;;;;;;;10.86;59.76;98501.13;4836904;29;20547;-75
2021/10/14 12:17:10;;;;;;;48.45;12.20;;;;;;;10.90;59.36;98499.38;4831039;29;20058;-75
2021/10/14 12:20:10;;;;;;;62.22;13.32;;;;;;;10.90;59.35;98497.44;4793573;29;20598;-74
2021/10/14 12:22:46;;;;;;;49.92;14.70;;;;;;;10.76;59.53;98483.00;4813983;29;20073;-74
2021/10/14 12:25:25;;;;;;;51.00;13.38;;;;;;;10.77;59.81;98488.16;4807856;29;20063;-78
2021/10/14 12:28:25;;;;;;;46.17;11.52;;;;;;;10.80;59.65;98494.94;4783328;30;20066;-78
2021/10/14 12:31:07;;;;;;;47.60;11.77;;;;;;;10.77;59.91;98481.88;4782248;30;20058;-78
2021/10/14 12:33:33;;;;;;;47.78;12.80;;;;;;;10.75;60.12;98490.41;4778060;30;20060;-79
2021/10/14 12:36:00;;;;;;;62.17;13.05;;;;;;;10.67;60.39;98477.44;4783315;30;20104;-79
2021/10/14 12:38:37;;;;;;;43.65;11.48;;;;;;;10.74;60.36;98475.13;4781754;30;20077;-81
2021/10/14 12:41:07;;;;;;;55.83;13.67;;;;;;;10.73;60.29;98473.50;4801834;29;20070;-70
2021/10/14 12:43:38;;;;;;;49.00;11.77;;;;;;;10.84;60.21;98475.97;4815286;29;20065;-71
2021/10/14 12:51:45;;;;;;;51.60;13.50;;;;;;;10.73;60.62;98472.69;4810639;29;20071;-70
2021/10/14 12:54:13;;;;;;;43.92;12.40;;;;;;;10.71;60.63;98464.81;4800677;29;20141;-72
2021/10/14 12:56:41;;;;;;;55.45;12.48;;;;;;;10.69;60.72;98460.75;4817364;29;20062;-71
2021/10/14 12:59:08;;;;;;;49.60;14.20;;;;;;;10.63;61.06;98466.34;4818264;29;20153;-72
2021/10/14 13:01:36;;;;;;;49.30;13.30;;;;;;;10.61;61.25;98462.28;4796142;29;20441;-72
2021/10/14 13:04:03;;;;;;;49.47;13.32;;;;;;;10.56;61.31;98476.88;4808779;29;20050;-71
2021/10/14 13:06:29;;;;;;;49.42;12.88;;;;;;;10.50;61.52;98467.19;4815588;29;20061;-73
2021/10/14 13:08:59;;;;;;;56.33;13.68;;;;;;;10.51;61.68;98471.53;4815321;29;20054;-71
2021/10/14 13:11:31;;;;;;;55.10;13.57;;;;;;;10.46;61.80;98466.19;4798638;29;20457;-72
2021/10/14 13:13:59;;;;;;;51.40;14.50;;;;;;;10.40;61.63;98462.72;4816662;29;20086;-72
2021/10/14 13:16:25;;;;;;;61.10;12.93;;;;;;;10.45;61.80;98461.81;4798554;29;20495;-73
2021/10/14 13:18:51;;;;;;;44.08;11.77;;;;;;;10.56;61.17;98456.94;4839719;29;20407;-70
2021/10/14 13:21:17;;;;;;;60.22;14.68;;;;;;;10.47;61.58;98457.66;4848405;29;20060;-70
2021/10/14 13:23:43;;;;;;;47.90;12.68;;;;;;;10.34;61.94;98456.56;4869905;29;20065;-72
2021/10/14 13:26:09;;;;;;;55.67;13.10;;;;;;;10.29;62.10;98453.13;4839576;29;20116;-70
2021/10/14 13:28:41;;;;;;;55.00;12.50;;;;;;;10.30;62.07;98452.81;4844909;29;20503;-70
2021/10/14 13:31:11;;;;;;;52.90;12.93;;;;;;;10.35;62.16;98451.88;4840060;29;20183;-72
2021/10/14 13:33:42;;;;;;;49.13;12.73;;;;;;;10.44;61.92;98447.34;4837061;29;20058;-71
2021/10/14 13:36:31;;;;;;;53.63;12.43;;;;;;;10.40;62.10;98440.84;4848708;29;20581;-70
2021/10/14 13:38:57;;;;;;;49.08;13.45;;;;;;;10.46;61.96;98447.06;4830629;29;20137;-72
2021/10/14 13:41:25;;;;;;;55.97;13.05;;;;;;;10.42;62.10;98444.13;4849204;29;20084;-72
2021/10/14 13:44:01;;;;;;;49.22;13.23;;;;;;;10.35;61.99;98427.28;4826819;29;20046;-71